Hveragerdi, Iceland
Current Conditions -  °F | °C
As of 1:00 PM on Friday 19 Dec 2014 (Local Time) from BIRK Reporting Station
Broken Clouds Broken Clouds  
Wind Chill: 27°   Ceiling: 7000
Heat Index: 27°   Visibility: 6mi
Dew Point: 23°   Wind: 3mph
Humidity: 86%   Direction: 220°SW
Pressure: 29.23"   Gusts: NA
Location:  64°N, 21.2°W
Report Text: BIRK 191300Z 22003KT 180V260 9999 FEW026CB BKN070 M03/M05 Q0990 R01/490245
Loading
Personal Weather Stations






























Interactive Weather Map New forecast layout! Learn more

10-Day Weather Forecast

Advertisements
Track Severe Weather on mobile